sensor_id;sensor_type;location;lat;lon;timestamp;temperature;humidity
36352;DHT22;22382;44.768;17.206;2024-01-10T00:02:07;-0.80;99.90
36352;DHT22;22382;44.768;17.206;2024-01-10T00:04:35;-0.80;99.90
36352;DHT22;22382;44.768;17.206;2024-01-10T00:07:02;-1.00;99.90
36352;DHT22;22382;44.768;17.206;2024-01-10T00:09:29;-1.00;99.90
36352;DHT22;22382;44.768;17.206;2024-01-10T00:11:56;-0.90;99.90
36352;DHT22;22382;44.768;17.206;2024-01-10T00:14:23;-0.90;99.90
36352;DHT22;22382;44.768;17.206;2024-01-10T00:16:50;-0.90;99.90
36352;DHT22;22382;44.768;17.206;2024-01-10T00:19:18;-1.00;99.90
36352;DHT22;22382;44.768;17.206;2024-01-10T00:21:45;-0.90;99.90
36352;DHT22;22382;44.768;17.206;2024-01-10T00:24:12;-0.90;99.90
36352;DHT22;22382;44.768;17.206;2024-01-10T00:26:39;-0.90;99.90
36352;DHT22;22382;44.768;17.206;2024-01-10T00:29:06;-0.90;99.90
36352;DHT22;22382;44.768;17.206;2024-01-10T00:31:34;-0.80;99.90
36352;DHT22;22382;44.768;17.206;2024-01-10T00:34:01;-0.80;99.90
36352;DHT22;22382;44.768;17.206;2024-01-10T00:36:29;-0.90;99.90
36352;DHT22;22382;44.768;17.206;2024-01-10T00:38:56;-0.90;99.90
36352;DHT22;22382;44.768;17.206;2024-01-10T00:41:23;-0.70;99.90
36352;DHT22;22382;44.768;17.206;2024-01-10T00:43:50;-0.70;99.90
36352;DHT22;22382;44.768;17.206;2024-01-10T00:46:17;-0.70;99.90
36352;DHT22;22382;44.768;17.206;2024-01-10T00:48:45;-0.70;99.90
36352;DHT22;22382;44.768;17.206;2024-01-10T00:51:13;-0.70;99.90
36352;DHT22;22382;44.768;17.206;2024-01-10T00:53:40;-0.70;99.90
36352;DHT22;22382;44.768;17.206;2024-01-10T00:56:07;-0.70;99.90
36352;DHT22;22382;44.768;17.206;2024-01-10T00:58:35;-0.70;99.90
36352;DHT22;22382;44.768;17.206;2024-01-10T01:01:03;-0.60;99.90
36352;DHT22;22382;44.768;17.206;2024-01-10T01:03:30;-0.60;99.90
36352;DHT22;22382;44.768;17.206;2024-01-10T01:05:57;-0.70;99.90
36352;DHT22;22382;44.768;17.206;2024-01-10T01:08:24;-0.80;99.90
36352;DHT22;22382;44.768;17.206;2024-01-10T01:10:52;-0.70;99.90
36352;DHT22;22382;44.768;17.206;2024-01-10T01:13:19;-0.80;99.90
36352;DHT22;22382;44.768;17.206;2024-01-10T01:15:46;-0.80;99.90
36352;DHT22;22382;44.768;17.206;2024-01-10T01:18:13;-0.80;99.90
36352;DHT22;22382;44.768;17.206;2024-01-10T01:20:41;-0.80;99.90
36352;DHT22;22382;44.768;17.206;2024-01-10T01:23:08;-0.80;99.90
36352;DHT22;22382;44.768;17.206;2024-01-10T01:25:36;-0.80;99.90
36352;DHT22;22382;44.768;17.206;2024-01-10T01:28:03;-0.90;99.90
36352;DHT22;22382;44.768;17.206;2024-01-10T01:30:30;-1.00;99.90
36352;DHT22;22382;44.768;17.206;2024-01-10T01:32:58;-0.90;99.90
36352;DHT22;22382;44.768;17.206;2024-01-10T01:35:26;-0.90;99.90
36352;DHT22;22382;44.768;17.206;2024-01-10T01:37:53;-1.00;99.90
36352;DHT22;22382;44.768;17.206;2024-01-10T01:40:20;-1.00;99.90
36352;DHT22;22382;44.768;17.206;2024-01-10T01:42:47;-1.00;99.90
36352;DHT22;22382;44.768;17.206;2024-01-10T01:45:15;-1.00;99.90
36352;DHT22;22382;44.768;17.206;2024-01-10T01:47:42;-1.10;99.90
36352;DHT22;22382;44.768;17.206;2024-01-10T01:50:10;-1.10;99.90
36352;DHT22;22382;44.768;17.206;2024-01-10T01:52:38;-1.00;99.90
36352;DHT22;22382;44.768;17.206;2024-01-10T01:55:07;-1.10;99.90
36352;DHT22;22382;44.768;17.206;2024-01-10T01:57:36;-1.10;99.90
36352;DHT22;22382;44.768;17.206;2024-01-10T02:00:04;-1.10;99.90
36352;DHT22;22382;44.768;17.206;2024-01-10T02:02:32;-1.10;99.90
36352;DHT22;22382;44.768;17.206;2024-01-10T02:05:01;-1.10;99.90
36352;DHT22;22382;44.768;17.206;2024-01-10T02:07:29;-1.10;99.90
36352;DHT22;22382;44.768;17.206;2024-01-10T02:09:56;-1.10;99.90
36352;DHT22;22382;44.768;17.206;2024-01-10T02:12:24;-1.10;99.90
36352;DHT22;22382;44.768;17.206;2024-01-10T02:14:52;-1.00;99.90
36352;DHT22;22382;44.768;17.206;2024-01-10T02:17:19;-1.10;99.90
36352;DHT22;22382;44.768;17.206;2024-01-10T02:19:47;-1.10;99.90
36352;DHT22;22382;44.768;17.206;2024-01-10T02:22:14;-1.10;99.90
36352;DHT22;22382;44.768;17.206;2024-01-10T02:24:41;-1.10;99.90
36352;DHT22;22382;44.768;17.206;2024-01-10T02:27:08;-1.20;99.90
36352;DHT22;22382;44.768;17.206;2024-01-10T02:29:35;-1.10;99.90
36352;DHT22;22382;44.768;17.206;2024-01-10T02:32:03;-1.20;99.90
36352;DHT22;22382;44.768;17.206;2024-01-10T02:34:30;-1.10;99.90
36352;DHT22;22382;44.768;17.206;2024-01-10T02:36:58;-1.10;99.90
36352;DHT22;22382;44.768;17.206;2024-01-10T02:39:25;-1.30;99.90
36352;DHT22;22382;44.768;17.206;2024-01-10T02:41:52;-1.20;99.90
36352;DHT22;22382;44.768;17.206;2024-01-10T02:44:19;-1.30;99.90
36352;DHT22;22382;44.768;17.206;2024-01-10T02:46:46;-1.20;99.90
36352;DHT22;22382;44.768;17.206;2024-01-10T02:49:14;-1.10;99.90
36352;DHT22;22382;44.768;17.206;2024-01-10T02:51:41;-1.10;99.90
36352;DHT22;22382;44.768;17.206;2024-01-10T02:54:08;-1.10;99.90
36352;DHT22;22382;44.768;17.206;2024-01-10T02:56:35;-1.10;99.90
36352;DHT22;22382;44.768;17.206;2024-01-10T02:59:02;-1.10;99.90
36352;DHT22;22382;44.768;17.206;2024-01-10T03:01:29;-1.10;99.90
36352;DHT22;22382;44.768;17.206;2024-01-10T03:03:57;-1.10;99.90
36352;DHT22;22382;44.768;17.206;2024-01-10T03:06:24;-1.00;99.90
36352;DHT22;22382;44.768;17.206;2024-01-10T03:08:55;-1.10;99.90
36352;DHT22;22382;44.768;17.206;2024-01-10T03:11:22;-1.10;99.90
36352;DHT22;22382;44.768;17.206;2024-01-10T03:13:53;-1.20;99.90
36352;DHT22;22382;44.768;17.206;2024-01-10T03:16:27;-1.10;99.90
36352;DHT22;22382;44.768;17.206;2024-01-10T03:18:54;-1.10;99.90
36352;DHT22;22382;44.768;17.206;2024-01-10T03:21:21;-1.10;99.90
36352;DHT22;22382;44.768;17.206;2024-01-10T03:23:55;-1.10;99.90
36352;DHT22;22382;44.768;17.206;2024-01-10T03:26:23;-1.10;99.90
36352;DHT22;22382;44.768;17.206;2024-01-10T03:28:51;-1.10;99.90
36352;DHT22;22382;44.768;17.206;2024-01-10T03:31:19;-1.10;99.90
36352;DHT22;22382;44.768;17.206;2024-01-10T03:33:46;-1.10;99.90
36352;DHT22;22382;44.768;17.206;2024-01-10T03:36:16;-1.10;99.90
36352;DHT22;22382;44.768;17.206;2024-01-10T03:38:44;-1.10;99.90
36352;DHT22;22382;44.768;17.206;2024-01-10T03:41:16;-1.10;99.90
36352;DHT22;22382;44.768;17.206;2024-01-10T03:43:44;-1.00;99.90
36352;DHT22;22382;44.768;17.206;2024-01-10T03:46:11;-1.10;99.90
36352;DHT22;22382;44.768;17.206;2024-01-10T03:48:38;-1.10;99.90
36352;DHT22;22382;44.768;17.206;2024-01-10T03:51:18;-1.10;99.90
36352;DHT22;22382;44.768;17.206;2024-01-10T03:53:45;-1.20;99.90
36352;DHT22;22382;44.768;17.206;2024-01-10T03:56:13;-1.10;99.90
36352;DHT22;22382;44.768;17.206;2024-01-10T03:58:40;-1.10;99.90
36352;DHT22;22382;44.768;17.206;2024-01-10T04:01:08;-1.00;99.90
36352;DHT22;22382;44.768;17.206;2024-01-10T04:03:36;-0.90;99.90
36352;DHT22;22382;44.768;17.206;2024-01-10T04:06:03;-1.00;99.90
36352;DHT22;22382;44.768;17.206;2024-01-10T04:08:31;-0.90;99.90
36352;DHT22;22382;44.768;17.206;2024-01-10T04:10:58;-0.80;99.90
36352;DHT22;22382;44.768;17.206;2024-01-10T04:13:26;-0.90;99.90
36352;DHT22;22382;44.768;17.206;2024-01-10T04:15:53;-1.10;99.90
36352;DHT22;22382;44.768;17.206;2024-01-10T04:18:20;-1.30;99.90
36352;DHT22;22382;44.768;17.206;2024-01-10T04:20:49;-1.30;99.90
36352;DHT22;22382;44.768;17.206;2024-01-10T04:23:16;-1.10;99.90
36352;DHT22;22382;44.768;17.206;2024-01-10T04:25:44;-1.10;99.90
36352;DHT22;22382;44.768;17.206;2024-01-10T04:28:11;-1.00;99.90
36352;DHT22;22382;44.768;17.206;2024-01-10T04:30:38;-1.00;99.90
36352;DHT22;22382;44.768;17.206;2024-01-10T04:33:06;-1.00;99.90
36352;DHT22;22382;44.768;17.206;2024-01-10T04:35:33;-0.90;99.90
36352;DHT22;22382;44.768;17.206;2024-01-10T04:38:00;-0.90;99.90
36352;DHT22;22382;44.768;17.206;2024-01-10T04:40:28;-0.90;99.90
36352;DHT22;22382;44.768;17.206;2024-01-10T04:42:55;-1.20;99.90
36352;DHT22;22382;44.768;17.206;2024-01-10T04:45:22;-1.20;99.90
36352;DHT22;22382;44.768;17.206;2024-01-10T04:47:49;-1.00;99.90
36352;DHT22;22382;44.768;17.206;2024-01-10T04:50:17;-1.10;99.90
36352;DHT22;22382;44.768;17.206;2024-01-10T04:52:44;-0.90;99.90
36352;DHT22;22382;44.768;17.206;2024-01-10T04:55:11;-1.00;99.90
36352;DHT22;22382;44.768;17.206;2024-01-10T04:57:38;-1.10;99.90
36352;DHT22;22382;44.768;17.206;2024-01-10T05:00:06;-1.20;99.90
36352;DHT22;22382;44.768;17.206;2024-01-10T05:02:33;-1.20;99.90
36352;DHT22;22382;44.768;17.206;2024-01-10T05:05:01;-1.10;99.90
36352;DHT22;22382;44.768;17.206;2024-01-10T05:07:28;-1.10;99.90
36352;DHT22;22382;44.768;17.206;2024-01-10T05:09:55;-1.30;99.90
36352;DHT22;22382;44.768;17.206;2024-01-10T05:12:22;-1.20;99.90
36352;DHT22;22382;44.768;17.206;2024-01-10T05:14:50;-1.10;99.90
36352;DHT22;22382;44.768;17.206;2024-01-10T05:17:17;-1.20;99.90
36352;DHT22;22382;44.768;17.206;2024-01-10T05:19:44;-1.10;99.90
36352;DHT22;22382;44.768;17.206;2024-01-10T05:22:13;-1.00;99.90
36352;DHT22;22382;44.768;17.206;2024-01-10T05:24:40;-0.90;99.90
36352;DHT22;22382;44.768;17.206;2024-01-10T05:27:07;-1.00;99.90
36352;DHT22;22382;44.768;17.206;2024-01-10T05:29:34;-1.00;99.90
36352;DHT22;22382;44.768;17.206;2024-01-10T05:32:01;-1.00;99.90
36352;DHT22;22382;44.768;17.206;2024-01-10T05:34:29;-0.90;99.90
36352;DHT22;22382;44.768;17.206;2024-01-10T05:36:56;-1.00;99.90
36352;DHT22;22382;44.768;17.206;2024-01-10T05:39:23;-1.00;99.90
36352;DHT22;22382;44.768;17.206;2024-01-10T05:41:50;-1.00;99.90
36352;DHT22;22382;44.768;17.206;2024-01-10T05:44:17;-1.00;99.90
36352;DHT22;22382;44.768;17.206;2024-01-10T05:46:45;-1.00;99.90
36352;DHT22;22382;44.768;17.206;2024-01-10T05:49:12;-1.10;99.90
36352;DHT22;22382;44.768;17.206;2024-01-10T05:51:39;-1.30;99.90
36352;DHT22;22382;44.768;17.206;2024-01-10T05:54:07;-1.20;99.90
36352;DHT22;22382;44.768;17.206;2024-01-10T05:56:34;-1.20;99.90
36352;DHT22;22382;44.768;17.206;2024-01-10T05:59:01;-1.20;99.90
36352;DHT22;22382;44.768;17.206;2024-01-10T06:01:28;-1.10;99.90
36352;DHT22;22382;44.768;17.206;2024-01-10T06:03:56;-1.10;99.90
36352;DHT22;22382;44.768;17.206;2024-01-10T06:06:23;-1.20;99.90
36352;DHT22;22382;44.768;17.206;2024-01-10T06:08:51;-1.20;99.90
36352;DHT22;22382;44.768;17.206;2024-01-10T06:11:19;-1.20;99.90
36352;DHT22;22382;44.768;17.206;2024-01-10T06:13:46;-1.30;99.90
36352;DHT22;22382;44.768;17.206;2024-01-10T06:16:22;-1.40;99.90
36352;DHT22;22382;44.768;17.206;2024-01-10T06:18:49;-1.30;99.90
36352;DHT22;22382;44.768;17.206;2024-01-10T06:21:17;-1.40;99.90
36352;DHT22;22382;44.768;17.206;2024-01-10T06:23:44;-1.40;99.90
36352;DHT22;22382;44.768;17.206;2024-01-10T06:26:11;-1.40;99.90
36352;DHT22;22382;44.768;17.206;2024-01-10T06:28:39;-1.40;99.90
36352;DHT22;22382;44.768;17.206;2024-01-10T06:31:06;-1.40;99.90
36352;DHT22;22382;44.768;17.206;2024-01-10T06:33:37;-1.50;99.90
36352;DHT22;22382;44.768;17.206;2024-01-10T06:36:05;-1.40;99.90
36352;DHT22;22382;44.768;17.206;2024-01-10T06:38:32;-1.50;99.90
36352;DHT22;22382;44.768;17.206;2024-01-10T06:41:00;-1.50;99.90
36352;DHT22;22382;44.768;17.206;2024-01-10T06:43:27;-1.40;99.90
36352;DHT22;22382;44.768;17.206;2024-01-10T06:45:55;-1.30;99.90
36352;DHT22;22382;44.768;17.206;2024-01-10T06:48:22;-1.40;99.90
36352;DHT22;22382;44.768;17.206;2024-01-10T06:50:49;-1.40;99.90
36352;DHT22;22382;44.768;17.206;2024-01-10T06:53:17;-1.40;99.90
36352;DHT22;22382;44.768;17.206;2024-01-10T06:55:44;-1.40;99.90
36352;DHT22;22382;44.768;17.206;2024-01-10T06:58:11;-1.70;99.90
36352;DHT22;22382;44.768;17.206;2024-01-10T07:00:38;-1.70;99.90
36352;DHT22;22382;44.768;17.206;2024-01-10T07:03:06;-1.60;99.90
36352;DHT22;22382;44.768;17.206;2024-01-10T07:05:33;-1.50;99.90
36352;DHT22;22382;44.768;17.206;2024-01-10T07:08:02;-1.30;99.90
36352;DHT22;22382;44.768;17.206;2024-01-10T07:10:30;-1.30;99.90
36352;DHT22;22382;44.768;17.206;2024-01-10T07:12:57;-1.20;99.90
36352;DHT22;22382;44.768;17.206;2024-01-10T07:15:24;-1.20;99.90
36352;DHT22;22382;44.768;17.206;2024-01-10T07:17:52;-1.30;99.90
36352;DHT22;22382;44.768;17.206;2024-01-10T07:20:19;-1.30;99.90
36352;DHT22;22382;44.768;17.206;2024-01-10T07:22:46;-1.40;99.90
36352;DHT22;22382;44.768;17.206;2024-01-10T07:25:14;-1.40;99.90
36352;DHT22;22382;44.768;17.206;2024-01-10T07:27:41;-1.30;99.90
36352;DHT22;22382;44.768;17.206;2024-01-10T07:30:09;-1.40;99.90
36352;DHT22;22382;44.768;17.206;2024-01-10T07:32:44;-1.20;99.90
36352;DHT22;22382;44.768;17.206;2024-01-10T07:35:13;-1.10;99.90
36352;DHT22;22382;44.768;17.206;2024-01-10T07:37:42;-1.10;99.90
36352;DHT22;22382;44.768;17.206;2024-01-10T07:40:12;-1.10;99.90
36352;DHT22;22382;44.768;17.206;2024-01-10T07:42:42;-1.10;99.90
36352;DHT22;22382;44.768;17.206;2024-01-10T07:45:10;-1.10;99.90
36352;DHT22;22382;44.768;17.206;2024-01-10T07:47:38;-1.10;99.90
36352;DHT22;22382;44.768;17.206;2024-01-10T07:50:06;-1.10;99.90
36352;DHT22;22382;44.768;17.206;2024-01-10T07:52:34;-1.20;99.90
36352;DHT22;22382;44.768;17.206;2024-01-10T07:55:02;-1.10;99.90
36352;DHT22;22382;44.768;17.206;2024-01-10T07:57:35;-1.10;99.90
36352;DHT22;22382;44.768;17.206;2024-01-10T08:00:05;-1.20;99.90
36352;DHT22;22382;44.768;17.206;2024-01-10T08:02:35;-1.30;99.90
36352;DHT22;22382;44.768;17.206;2024-01-10T08:05:03;-1.20;99.90
36352;DHT22;22382;44.768;17.206;2024-01-10T08:07:37;-1.00;99.90
36352;DHT22;22382;44.768;17.206;2024-01-10T08:10:06;-1.00;99.90
36352;DHT22;22382;44.768;17.206;2024-01-10T08:12:35;-1.00;99.90
36352;DHT22;22382;44.768;17.206;2024-01-10T08:15:03;-1.00;99.90
36352;DHT22;22382;44.768;17.206;2024-01-10T08:17:31;-0.90;99.90
36352;DHT22;22382;44.768;17.206;2024-01-10T08:19:58;-0.90;99.90
36352;DHT22;22382;44.768;17.206;2024-01-10T08:22:26;-0.90;99.90
36352;DHT22;22382;44.768;17.206;2024-01-10T08:24:54;-0.90;99.90
36352;DHT22;22382;44.768;17.206;2024-01-10T08:27:23;-0.80;99.90
36352;DHT22;22382;44.768;17.206;2024-01-10T08:29:50;-0.70;99.90
36352;DHT22;22382;44.768;17.206;2024-01-10T08:32:18;-0.80;99.90
36352;DHT22;22382;44.768;17.206;2024-01-10T08:34:47;-0.90;99.90
36352;DHT22;22382;44.768;17.206;2024-01-10T08:37:17;-0.80;99.90
36352;DHT22;22382;44.768;17.206;2024-01-10T08:39:44;-0.70;99.90
36352;DHT22;22382;44.768;17.206;2024-01-10T08:42:11;-0.80;99.90
36352;DHT22;22382;44.768;17.206;2024-01-10T08:44:38;-0.80;99.90
36352;DHT22;22382;44.768;17.206;2024-01-10T08:47:06;-0.70;99.90
36352;DHT22;22382;44.768;17.206;2024-01-10T08:49:33;-0.70;99.90
36352;DHT22;22382;44.768;17.206;2024-01-10T08:52:00;-0.70;99.90
36352;DHT22;22382;44.768;17.206;2024-01-10T08:54:28;-0.70;99.90
36352;DHT22;22382;44.768;17.206;2024-01-10T08:56:55;-0.70;99.90
36352;DHT22;22382;44.768;17.206;2024-01-10T08:59:23;-0.70;99.90
36352;DHT22;22382;44.768;17.206;2024-01-10T09:01:51;-0.60;99.90
36352;DHT22;22382;44.768;17.206;2024-01-10T09:04:19;-0.60;99.90
36352;DHT22;22382;44.768;17.206;2024-01-10T09:06:47;-0.70;99.90
36352;DHT22;22382;44.768;17.206;2024-01-10T09:09:14;-0.70;99.90
36352;DHT22;22382;44.768;17.206;2024-01-10T09:11:41;-0.60;99.90
36352;DHT22;22382;44.768;17.206;2024-01-10T09:14:12;-0.70;99.90
36352;DHT22;22382;44.768;17.206;2024-01-10T09:16:39;-0.70;99.90
36352;DHT22;22382;44.768;17.206;2024-01-10T09:19:07;-0.70;99.90
36352;DHT22;22382;44.768;17.206;2024-01-10T09:21:37;-0.70;99.90
36352;DHT22;22382;44.768;17.206;2024-01-10T09:24:05;-0.70;99.90
36352;DHT22;22382;44.768;17.206;2024-01-10T09:26:52;-0.80;99.90
36352;DHT22;22382;44.768;17.206;2024-01-10T09:29:21;-0.80;99.90
36352;DHT22;22382;44.768;17.206;2024-01-10T09:31:48;-0.90;99.90
36352;DHT22;22382;44.768;17.206;2024-01-10T09:34:16;-1.10;99.90
36352;DHT22;22382;44.768;17.206;2024-01-10T09:36:43;-0.90;99.90
36352;DHT22;22382;44.768;17.206;2024-01-10T09:39:10;-0.80;99.90
36352;DHT22;22382;44.768;17.206;2024-01-10T09:41:46;-0.50;99.90
36352;DHT22;22382;44.768;17.206;2024-01-10T09:44:15;-0.50;99.90
36352;DHT22;22382;44.768;17.206;2024-01-10T09:46:51;-0.60;99.90
36352;DHT22;22382;44.768;17.206;2024-01-10T09:49:20;-0.40;99.90
36352;DHT22;22382;44.768;17.206;2024-01-10T09:51:58;-0.60;99.90
36352;DHT22;22382;44.768;17.206;2024-01-10T09:54:32;-0.30;99.90
36352;DHT22;22382;44.768;17.206;2024-01-10T09:57:01;-0.30;99.90
36352;DHT22;22382;44.768;17.206;2024-01-10T09:59:28;-0.30;99.90
36352;DHT22;22382;44.768;17.206;2024-01-10T10:01:56;-0.30;99.90
36352;DHT22;22382;44.768;17.206;2024-01-10T10:04:27;-0.30;99.90
36352;DHT22;22382;44.768;17.206;2024-01-10T10:06:59;-0.10;99.90
36352;DHT22;22382;44.768;17.206;2024-01-10T10:09:31;0.00;99.90
36352;DHT22;22382;44.768;17.206;2024-01-10T10:11:58;0.10;99.90
36352;DHT22;22382;44.768;17.206;2024-01-10T10:14:29;0.40;99.90
36352;DHT22;22382;44.768;17.206;2024-01-10T10:17:16;0.40;99.90
36352;DHT22;22382;44.768;17.206;2024-01-10T10:19:44;0.40;99.90
36352;DHT22;22382;44.768;17.206;2024-01-10T10:22:11;0.60;99.90
36352;DHT22;22382;44.768;17.206;2024-01-10T10:24:39;0.50;99.90
36352;DHT22;22382;44.768;17.206;2024-01-10T10:27:11;0.50;99.90
36352;DHT22;22382;44.768;17.206;2024-01-10T10:29:40;0.40;99.90
36352;DHT22;22382;44.768;17.206;2024-01-10T10:32:08;0.40;99.90
36352;DHT22;22382;44.768;17.206;2024-01-10T10:34:36;-0.10;99.90
36352;DHT22;22382;44.768;17.206;2024-01-10T10:37:03;-0.10;99.90
36352;DHT22;22382;44.768;17.206;2024-01-10T10:39:30;-0.30;99.90
36352;DHT22;22382;44.768;17.206;2024-01-10T10:41:58;-0.20;99.90
36352;DHT22;22382;44.768;17.206;2024-01-10T10:44:29;-0.10;99.90
36352;DHT22;22382;44.768;17.206;2024-01-10T10:47:04;-0.10;99.90
36352;DHT22;22382;44.768;17.206;2024-01-10T10:49:46;-0.10;99.90
36352;DHT22;22382;44.768;17.206;2024-01-10T10:52:15;-0.20;99.90
36352;DHT22;22382;44.768;17.206;2024-01-10T10:54:43;0.00;99.90
36352;DHT22;22382;44.768;17.206;2024-01-10T10:57:12;-0.10;99.90
36352;DHT22;22382;44.768;17.206;2024-01-10T10:59:41;-0.10;99.90
36352;DHT22;22382;44.768;17.206;2024-01-10T11:02:09;-0.20;99.90
36352;DHT22;22382;44.768;17.206;2024-01-10T11:04:40;-0.30;99.90
36352;DHT22;22382;44.768;17.206;2024-01-10T11:07:08;-0.20;99.90
36352;DHT22;22382;44.768;17.206;2024-01-10T11:09:37;-0.10;99.90
36352;DHT22;22382;44.768;17.206;2024-01-10T11:18:18;-0.20;99.90
36352;DHT22;22382;44.768;17.206;2024-01-10T11:26:08;-0.10;99.90
36352;DHT22;22382;44.768;17.206;2024-01-10T11:28:36;0.10;99.90
36352;DHT22;22382;44.768;17.206;2024-01-10T11:31:07;0.10;99.90
36352;DHT22;22382;44.768;17.206;2024-01-10T11:33:39;-0.10;99.90
36352;DHT22;22382;44.768;17.206;2024-01-10T11:36:19;-0.20;99.90
36352;DHT22;22382;44.768;17.206;2024-01-10T11:38:56;-0.20;99.90
36352;DHT22;22382;44.768;17.206;2024-01-10T11:41:28;-0.20;99.90
36352;DHT22;22382;44.768;17.206;2024-01-10T11:46:47;-0.40;99.90
36352;DHT22;22382;44.768;17.206;2024-01-10T11:49:16;-0.50;99.90
36352;DHT22;22382;44.768;17.206;2024-01-10T11:51:49;-0.50;99.90
36352;DHT22;22382;44.768;17.206;2024-01-10T11:57:02;-0.40;99.90
36352;DHT22;22382;44.768;17.206;2024-01-10T11:59:31;-0.40;99.90
36352;DHT22;22382;44.768;17.206;2024-01-10T12:01:59;-0.30;99.90
36352;DHT22;22382;44.768;17.206;2024-01-10T12:04:26;-0.30;99.90
36352;DHT22;22382;44.768;17.206;2024-01-10T12:07:13;-0.20;99.90
36352;DHT22;22382;44.768;17.206;2024-01-10T12:09:41;-0.30;99.90
36352;DHT22;22382;44.768;17.206;2024-01-10T12:12:09;-0.30;99.90
36352;DHT22;22382;44.768;17.206;2024-01-10T12:14:39;-0.40;99.90
36352;DHT22;22382;44.768;17.206;2024-01-10T12:17:07;-0.50;99.90
36352;DHT22;22382;44.768;17.206;2024-01-10T12:19:37;-0.60;99.90
36352;DHT22;22382;44.768;17.206;2024-01-10T12:22:05;-0.50;99.90
36352;DHT22;22382;44.768;17.206;2024-01-10T12:24:48;-0.60;99.90
36352;DHT22;22382;44.768;17.206;2024-01-10T12:27:18;-0.50;99.90
36352;DHT22;22382;44.768;17.206;2024-01-10T12:29:50;-0.60;99.90
36352;DHT22;22382;44.768;17.206;2024-01-10T12:32:20;-0.50;99.90
36352;DHT22;22382;44.768;17.206;2024-01-10T12:35:01;-0.40;99.90
36352;DHT22;22382;44.768;17.206;2024-01-10T12:37:29;-0.40;99.90
36352;DHT22;22382;44.768;17.206;2024-01-10T12:39:57;-0.40;99.90
36352;DHT22;22382;44.768;17.206;2024-01-10T12:42:24;-0.50;99.90
36352;DHT22;22382;44.768;17.206;2024-01-10T12:44:52;-0.40;99.90
36352;DHT22;22382;44.768;17.206;2024-01-10T12:47:20;-0.30;99.90
36352;DHT22;22382;44.768;17.206;2024-01-10T12:49:49;-0.30;99.90
36352;DHT22;22382;44.768;17.206;2024-01-10T12:52:16;-0.50;99.90
36352;DHT22;22382;44.768;17.206;2024-01-10T12:54:49;-0.50;99.90
36352;DHT22;22382;44.768;17.206;2024-01-10T12:57:16;-0.40;99.90
36352;DHT22;22382;44.768;17.206;2024-01-10T12:59:43;-0.40;99.90
36352;DHT22;22382;44.768;17.206;2024-01-10T13:02:12;-0.40;99.90
36352;DHT22;22382;44.768;17.206;2024-01-10T13:04:39;-0.30;99.90
36352;DHT22;22382;44.768;17.206;2024-01-10T13:07:07;-0.20;99.90
36352;DHT22;22382;44.768;17.206;2024-01-10T13:09:34;-0.20;99.90
36352;DHT22;22382;44.768;17.206;2024-01-10T13:12:04;-0.20;99.90
36352;DHT22;22382;44.768;17.206;2024-01-10T13:14:31;-0.30;99.90
36352;DHT22;22382;44.768;17.206;2024-01-10T13:16:59;-0.30;99.90
36352;DHT22;22382;44.768;17.206;2024-01-10T13:19:27;-0.20;99.90
36352;DHT22;22382;44.768;17.206;2024-01-10T13:21:54;-0.30;99.90
36352;DHT22;22382;44.768;17.206;2024-01-10T13:24:22;-0.30;99.90
36352;DHT22;22382;44.768;17.206;2024-01-10T13:26:49;-0.20;99.90
36352;DHT22;22382;44.768;17.206;2024-01-10T13:29:16;-0.20;99.90
36352;DHT22;22382;44.768;17.206;2024-01-10T13:31:44;-0.10;99.90
36352;DHT22;22382;44.768;17.206;2024-01-10T13:34:11;-0.10;99.90
36352;DHT22;22382;44.768;17.206;2024-01-10T13:36:39;-0.10;99.90
36352;DHT22;22382;44.768;17.206;2024-01-10T13:39:06;-0.20;99.90
36352;DHT22;22382;44.768;17.206;2024-01-10T13:41:34;-0.10;99.90
36352;DHT22;22382;44.768;17.206;2024-01-10T13:44:02;-0.10;99.90
36352;DHT22;22382;44.768;17.206;2024-01-10T13:46:29;-0.20;99.90
36352;DHT22;22382;44.768;17.206;2024-01-10T13:48:56;-0.20;99.90
36352;DHT22;22382;44.768;17.206;2024-01-10T13:51:23;-0.30;99.90
36352;DHT22;22382;44.768;17.206;2024-01-10T13:53:51;-0.10;99.90
36352;DHT22;22382;44.768;17.206;2024-01-10T13:56:18;-0.10;99.90
36352;DHT22;22382;44.768;17.206;2024-01-10T13:58:45;-0.20;99.90
36352;DHT22;22382;44.768;17.206;2024-01-10T14:01:12;-0.20;99.90
36352;DHT22;22382;44.768;17.206;2024-01-10T14:03:41;-0.20;99.90
36352;DHT22;22382;44.768;17.206;2024-01-10T14:06:08;-0.10;99.90
36352;DHT22;22382;44.768;17.206;2024-01-10T14:08:35;-0.20;99.90
36352;DHT22;22382;44.768;17.206;2024-01-10T14:11:04;-0.20;99.90
36352;DHT22;22382;44.768;17.206;2024-01-10T14:13:31;-0.10;99.90
36352;DHT22;22382;44.768;17.206;2024-01-10T14:15:58;0.00;99.90
36352;DHT22;22382;44.768;17.206;2024-01-10T14:18:26;0.00;99.90
36352;DHT22;22382;44.768;17.206;2024-01-10T14:20:53;-0.10;99.90
36352;DHT22;22382;44.768;17.206;2024-01-10T14:23:20;-0.10;99.90
36352;DHT22;22382;44.768;17.206;2024-01-10T14:25:48;0.00;99.90
36352;DHT22;22382;44.768;17.206;2024-01-10T14:28:15;-0.10;99.90
36352;DHT22;22382;44.768;17.206;2024-01-10T14:30:43;-0.20;99.90
36352;DHT22;22382;44.768;17.206;2024-01-10T14:33:10;-0.20;99.90
36352;DHT22;22382;44.768;17.206;2024-01-10T14:35:40;-0.30;99.90
36352;DHT22;22382;44.768;17.206;2024-01-10T14:38:08;-0.30;99.90
36352;DHT22;22382;44.768;17.206;2024-01-10T14:40:35;-0.20;99.90
36352;DHT22;22382;44.768;17.206;2024-01-10T14:43:03;-0.20;99.90
36352;DHT22;22382;44.768;17.206;2024-01-10T14:45:30;-0.20;99.90
36352;DHT22;22382;44.768;17.206;2024-01-10T14:47:57;-0.10;99.90
36352;DHT22;22382;44.768;17.206;2024-01-10T14:50:25;-0.10;99.90
36352;DHT22;22382;44.768;17.206;2024-01-10T14:52:52;0.00;99.90
36352;DHT22;22382;44.768;17.206;2024-01-10T14:55:19;-0.10;99.90
36352;DHT22;22382;44.768;17.206;2024-01-10T14:57:46;0.10;99.90
36352;DHT22;22382;44.768;17.206;2024-01-10T15:00:15;0.30;99.90
36352;DHT22;22382;44.768;17.206;2024-01-10T15:02:42;0.40;99.90
36352;DHT22;22382;44.768;17.206;2024-01-10T15:05:11;0.30;99.90
36352;DHT22;22382;44.768;17.206;2024-01-10T15:07:39;0.10;99.90
36352;DHT22;22382;44.768;17.206;2024-01-10T15:10:07;0.10;99.90
36352;DHT22;22382;44.768;17.206;2024-01-10T15:12:34;0.10;99.90
36352;DHT22;22382;44.768;17.206;2024-01-10T15:15:01;0.20;99.90
36352;DHT22;22382;44.768;17.206;2024-01-10T15:17:29;0.20;99.90
36352;DHT22;22382;44.768;17.206;2024-01-10T15:19:56;0.20;99.90
36352;DHT22;22382;44.768;17.206;2024-01-10T15:22:23;0.30;99.90
36352;DHT22;22382;44.768;17.206;2024-01-10T15:24:51;0.40;99.90
36352;DHT22;22382;44.768;17.206;2024-01-10T15:27:18;0.40;99.90
36352;DHT22;22382;44.768;17.206;2024-01-10T15:29:45;0.40;99.90
36352;DHT22;22382;44.768;17.206;2024-01-10T15:32:22;0.40;99.90
36352;DHT22;22382;44.768;17.206;2024-01-10T15:34:50;0.30;99.90
36352;DHT22;22382;44.768;17.206;2024-01-10T15:37:17;0.20;99.90
36352;DHT22;22382;44.768;17.206;2024-01-10T15:39:45;0.40;99.90
36352;DHT22;22382;44.768;17.206;2024-01-10T15:42:13;0.40;99.90